Time;durP1;ratioP1;P1;durP2;ratioP2;P2;SDS_P1;SDS_P2;PMS_P1;PMS_P2;Temp;Humidity;BMP_temperature;BMP_pressure;BME280_temperature;BME280_humidity;BME280_pressure;Samples;Min_cycle;Max_cycle;Signal;HPM_P1;HPM_P2
2023/06/04 00:00:18;;;;;;;3.30;2.70;;;;;;;10.55;47.89;101490.53;841204;23;1002;-76
2023/06/04 00:00:38;;;;;;;2.80;2.50;;;;;;;10.58;48.16;101497.59;841147;23;764;-77
2023/06/04 00:00:59;;;;;;;2.70;2.40;;;;;;;10.58;48.14;101494.09;848864;23;1079;-77
2023/06/04 00:01:20;;;;;;;4.60;2.60;;;;;;;10.53;48.07;101492.22;849196;23;1087;-77
2023/06/04 00:01:41;;;;;;;5.03;2.75;;;;;;;10.57;48.19;101498.41;849313;23;1016;-77
2023/06/04 00:02:02;;;;;;;5.57;3.15;;;;;;;10.53;48.25;101497.41;845612;23;979;-76
2023/06/04 00:02:23;;;;;;;4.38;3.20;;;;;;;10.53;48.43;101494.81;839897;23;1514;-77
2023/06/04 00:02:43;;;;;;;5.22;3.30;;;;;;;10.52;48.80;101494.75;841097;23;1075;-76
2023/06/04 00:03:04;;;;;;;5.37;3.13;;;;;;;10.56;48.42;101499.22;840983;23;1097;-76
2023/06/04 00:03:24;;;;;;;4.90;3.03;;;;;;;10.53;48.66;101494.81;839896;23;1322;-77
2023/06/04 00:03:45;;;;;;;3.70;2.90;;;;;;;10.50;48.24;101488.59;837045;23;1104;-77
2023/06/04 00:04:06;;;;;;;3.70;2.83;;;;;;;10.52;48.44;101486.91;840978;23;1081;-76
2023/06/04 00:04:26;;;;;;;4.05;2.85;;;;;;;10.50;48.47;101488.59;843912;23;1043;-76
2023/06/04 00:04:47;;;;;;;3.90;2.70;;;;;;;10.54;48.51;101499.19;845124;23;1055;-77
2023/06/04 00:05:08;;;;;;;3.80;2.70;;;;;;;10.52;48.49;101494.75;845023;23;1008;-77
2023/06/04 00:05:28;;;;;;;3.92;2.90;;;;;;;10.51;48.42;101492.97;849226;23;901;-77
2023/06/04 00:05:49;;;;;;;3.75;3.17;;;;;;;10.51;48.67;101490.34;839696;23;1271;-77
2023/06/04 00:06:09;;;;;;;4.37;3.50;;;;;;;10.51;48.81;101492.97;841015;23;974;-76
2023/06/04 00:06:30;;;;;;;4.38;3.40;;;;;;;10.53;48.55;101491.28;841214;23;776;-77
2023/06/04 00:06:51;;;;;;;4.43;3.33;;;;;;;10.57;48.71;101498.41;840654;23;1083;-77
2023/06/04 00:07:11;;;;;;;4.38;3.15;;;;;;;10.55;48.83;101494.84;839702;23;1359;-77
2023/06/04 00:07:32;;;;;;;5.10;3.20;;;;;;;10.55;48.54;101497.47;841241;23;769;-76
2023/06/04 00:07:53;;;;;;;5.05;3.20;;;;;;;10.49;48.44;101492.00;837605;23;1054;-76
2023/06/04 00:08:13;;;;;;;4.70;3.30;;;;;;;10.49;48.41;101492.00;837289;23;1021;-77
2023/06/04 00:08:34;;;;;;;4.22;3.40;;;;;;;10.49;48.71;101485.06;835936;23;1087;-76
2023/06/04 00:08:55;;;;;;;4.20;3.40;;;;;;;10.49;48.60;101494.59;839564;23;1103;-76
2023/06/04 00:09:15;;;;;;;4.32;3.40;;;;;;;10.46;48.52;101491.88;841110;23;1052;-76
2023/06/04 00:09:36;;;;;;;4.50;3.50;;;;;;;10.46;48.80;101486.66;843535;23;1187;-78
2023/06/04 00:09:56;;;;;;;4.85;3.58;;;;;;;10.51;48.53;101492.97;839538;23;1123;-77
2023/06/04 00:10:17;;;;;;;4.80;3.30;;;;;;;10.46;48.80;101492.78;836270;23;1579;-77
2023/06/04 00:10:39;;;;;;;4.40;2.90;;;;;;;10.46;48.86;101491.88;836239;23;1153;-77
2023/06/04 00:11:00;;;;;;;3.97;2.80;;;;;;;10.46;49.08;101489.28;837038;23;969;-78
2023/06/04 00:11:21;;;;;;;4.10;3.07;;;;;;;10.47;49.02;101498.88;838346;23;1416;-77
2023/06/04 00:11:41;;;;;;;4.05;3.17;;;;;;;10.43;49.03;101490.03;843649;23;1200;-77
2023/06/04 00:12:02;;;;;;;4.47;3.35;;;;;;;10.46;49.08;101498.00;843513;23;1066;-77
2023/06/04 00:12:23;;;;;;;4.93;3.15;;;;;;;10.40;49.10;101492.53;839823;23;1271;-78
2023/06/04 00:12:44;;;;;;;5.37;3.20;;;;;;;10.44;49.13;101488.31;841069;23;1011;-77
2023/06/04 00:13:04;;;;;;;5.40;3.15;;;;;;;10.44;48.96;101488.31;835681;23;1089;-77
2023/06/04 00:13:25;;;;;;;4.43;3.40;;;;;;;10.40;49.27;101482.97;845357;23;795;-77
2023/06/04 00:13:46;;;;;;;4.88;3.40;;;;;;;10.49;49.46;101492.00;849161;23;1042;-77
2023/06/04 00:14:06;;;;;;;5.20;3.50;;;;;;;10.48;49.32;101493.72;842184;23;1232;-77
2023/06/04 00:14:27;;;;;;;5.40;3.60;;;;;;;10.41;49.30;101484.78;841294;23;759;-78
2023/06/04 00:14:48;;;;;;;4.90;3.53;;;;;;;10.40;49.30;101485.56;841105;23;945;-77
2023/06/04 00:15:09;;;;;;;4.47;3.50;;;;;;;10.41;49.65;101492.59;841108;23;998;-78
2023/06/04 00:15:29;;;;;;;4.47;3.40;;;;;;;10.38;49.48;101482.03;841342;23;870;-77
2023/06/04 00:15:50;;;;;;;6.30;3.47;;;;;;;10.45;49.58;101484.88;839695;23;1240;-77
2023/06/04 00:16:11;;;;;;;6.25;3.50;;;;;;;10.48;49.56;101495.44;845102;23;1205;-78
2023/06/04 00:16:31;;;;;;;6.75;3.58;;;;;;;10.38;49.24;101484.63;843868;23;1144;-77
2023/06/04 00:16:52;;;;;;;5.45;3.50;;;;;;;10.39;49.61;101486.41;848750;23;1052;-78
2023/06/04 00:17:13;;;;;;;6.73;3.43;;;;;;;10.37;49.76;101480.25;843666;23;1133;-78
2023/06/04 00:17:34;;;;;;;6.03;3.30;;;;;;;10.38;49.66;101483.75;835894;23;1905;-78
2023/06/04 00:17:56;;;;;;;5.97;3.40;;;;;;;10.39;49.71;101478.56;845042;23;1053;-77
2023/06/04 00:18:17;;;;;;;5.72;3.30;;;;;;;10.40;49.76;101485.56;845159;23;1045;-78
2023/06/04 00:18:37;;;;;;;5.93;3.10;;;;;;;10.36;49.85;101480.19;845305;23;756;-77
2023/06/04 00:18:58;;;;;;;5.70;3.10;;;;;;;10.35;49.62;101474.09;843514;23;1152;-79
2023/06/04 00:19:19;;;;;;;4.00;3.10;;;;;;;10.38;49.74;101475.94;839520;23;1279;-77
2023/06/04 00:19:40;;;;;;;3.80;3.00;;;;;;;10.41;49.97;101490.00;839854;23;1317;-78
2023/06/04 00:20:02;;;;;;;3.90;3.00;;;;;;;10.37;49.70;101476.72;840881;23;964;-77
2023/06/04 00:20:23;;;;;;;3.95;3.03;;;;;;;10.37;50.00;101476.72;839745;23;1285;-77
2023/06/04 00:20:43;;;;;;;4.10;3.13;;;;;;;10.40;49.92;101480.34;840928;23;985;-77
2023/06/04 00:21:04;;;;;;;4.00;3.20;;;;;;;10.43;49.88;101492.63;840927;23;982;-77
2023/06/04 00:21:25;;;;;;;4.40;3.08;;;;;;;10.40;49.79;101488.19;839759;23;1283;-78
2023/06/04 00:21:46;;;;;;;4.47;3.07;;;;;;;10.40;49.62;101487.31;839165;23;1228;-77
2023/06/04 00:22:07;;;;;;;4.25;2.90;;;;;;;10.27;49.85;101465.06;842393;23;1317;-77
2023/06/04 00:22:28;;;;;;;4.50;3.15;;;;;;;10.32;50.06;101473.06;839465;23;1283;-78
2023/06/04 00:22:49;;;;;;;4.07;2.90;;;;;;;10.34;49.99;101480.13;841012;23;988;-77
2023/06/04 00:23:09;;;;;;;4.85;2.78;;;;;;;10.34;50.12;101481.84;837030;23;929;-77
2023/06/04 00:23:30;;;;;;;4.43;2.55;;;;;;;10.29;50.23;101473.84;841200;23;882;-76
2023/06/04 00:23:51;;;;;;;4.50;2.80;;;;;;;10.34;50.23;101492.28;842042;23;1032;-77
2023/06/04 00:24:14;;;;;;;5.10;2.77;;;;;;;10.34;50.25;101492.28;844995;23;1077;-77
2023/06/04 00:24:38;;;;;;;5.38;2.90;;;;;;;10.35;50.42;101492.34;845441;23;802;-77
2023/06/04 00:24:59;;;;;;;5.53;3.00;;;;;;;10.33;50.55;101495.72;839440;23;1021;-77
2023/06/04 00:25:22;;;;;;;5.43;3.00;;;;;;;10.27;50.34;101481.59;844118;23;1109;-77
2023/06/04 00:25:43;;;;;;;4.85;3.10;;;;;;;10.26;50.48;101478.94;838701;23;1058;-77
2023/06/04 00:26:04;;;;;;;4.43;3.20;;;;;;;10.22;50.61;101477.88;839159;23;1074;-78
2023/06/04 00:26:25;;;;;;;4.33;3.20;;;;;;;10.29;50.82;101489.47;840355;23;1299;-77
2023/06/04 00:26:46;;;;;;;4.20;3.08;;;;;;;10.22;50.72;101482.19;835028;23;1171;-79
2023/06/04 00:27:08;;;;;;;3.85;3.08;;;;;;;10.24;50.49;101485.78;834851;23;1218;-77
2023/06/04 00:27:29;;;;;;;3.65;2.90;;;;;;;10.26;50.76;101486.75;838974;23;1395;-77
2023/06/04 00:27:49;;;;;;;3.88;2.95;;;;;;;10.24;50.92;101486.69;839548;23;1054;-77
2023/06/04 00:28:10;;;;;;;3.70;2.67;;;;;;;10.17;50.70;101478.50;844942;23;1069;-77
2023/06/04 00:28:31;;;;;;;4.10;2.60;;;;;;;10.27;50.75;101485.94;845249;23;775;-78
2023/06/04 00:28:51;;;;;;;3.75;2.65;;;;;;;10.17;50.97;101473.28;838482;23;1313;-76
2023/06/04 00:29:12;;;;;;;3.90;2.97;;;;;;;10.17;50.88;101471.56;835432;23;1184;-76
2023/06/04 00:29:33;;;;;;;3.63;3.08;;;;;;;10.18;50.97;101475.97;841322;23;704;-77
2023/06/04 00:29:53;;;;;;;3.80;2.97;;;;;;;10.16;51.11;101477.63;839450;23;1242;-77
2023/06/04 00:30:14;;;;;;;3.73;2.73;;;;;;;10.15;50.91;101484.53;841159;23;968;-77
2023/06/04 00:30:35;;;;;;;4.20;2.70;;;;;;;10.17;51.07;101486.31;845239;23;1030;-77
2023/06/04 00:30:56;;;;;;;5.00;2.80;;;;;;;10.18;50.98;101488.13;840847;23;1165;-77
2023/06/04 00:31:17;;;;;;;4.35;2.67;;;;;;;10.20;51.09;101486.47;835798;23;1330;-77
2023/06/04 00:31:38;;;;;;;3.55;2.50;;;;;;;10.23;51.25;101495.34;839333;23;1246;-77
2023/06/04 00:31:58;;;;;;;2.92;2.40;;;;;;;10.19;51.34;101492.53;842402;23;1348;-77
2023/06/04 00:32:20;;;;;;;3.20;2.60;;;;;;;10.21;51.31;101485.63;841300;23;1100;-78
2023/06/04 00:32:41;;;;;;;4.93;2.72;;;;;;;10.12;51.54;101478.31;841225;23;998;-78
2023/06/04 00:33:02;;;;;;;5.00;2.70;;;;;;;10.11;51.52;101480.06;837195;23;1001;-77
2023/06/04 00:33:22;;;;;;;5.10;2.60;;;;;;;10.10;51.61;101478.28;842968;23;1529;-77
2023/06/04 00:33:43;;;;;;;3.72;2.60;;;;;;;10.08;51.43;101469.47;845191;23;1060;-78
2023/06/04 00:34:05;;;;;;;4.22;2.80;;;;;;;10.15;51.88;101487.16;845161;23;1092;-77
2023/06/04 00:34:25;;;;;;;4.15;2.80;;;;;;;10.07;51.71;101475.50;841392;23;820;-77
2023/06/04 00:34:57;;;;;;;4.40;2.60;;;;;;;10.10;51.75;101480.88;846349;23;1121;-77
2023/06/04 00:35:18;;;;;;;3.80;2.50;;;;;;;10.07;51.57;101472.03;845211;23;957;-77
2023/06/04 00:35:39;;;;;;;2.90;2.50;;;;;;;10.03;52.00;101467.50;845326;23;779;-77
2023/06/04 00:35:59;;;;;;;3.40;2.60;;;;;;;10.04;52.09;101472.78;840874;23;1085;-77
2023/06/04 00:36:20;;;;;;;3.60;2.60;;;;;;;10.06;52.03;101475.47;838582;23;1094;-77
2023/06/04 00:36:50;;;;;;;4.18;2.70;;;;;;;10.08;51.96;101473.81;841197;23;1208;-77
2023/06/04 00:37:11;;;;;;;3.65;2.63;;;;;;;10.11;51.89;101486.97;845065;23;1092;-77
2023/06/04 00:37:32;;;;;;;3.55;2.75;;;;;;;10.15;52.08;101496.72;843677;23;1887;-77
2023/06/04 00:37:52;;;;;;;3.08;2.67;;;;;;;10.09;52.45;101479.06;845022;23;1041;-77
2023/06/04 00:38:13;;;;;;;2.90;2.45;;;;;;;10.09;52.06;101488.63;839679;23;1165;-77
2023/06/04 00:38:34;;;;;;;3.67;2.40;;;;;;;10.09;52.17;101492.09;835832;23;1365;-77
2023/06/04 00:38:55;;;;;;;4.27;2.50;;;;;;;10.07;52.46;101482.47;835516;23;1101;-77
2023/06/04 00:39:16;;;;;;;4.55;2.70;;;;;;;10.04;52.36;101479.72;837026;23;995;-77
2023/06/04 00:39:36;;;;;;;4.60;2.78;;;;;;;10.09;52.29;101486.03;837280;23;748;-77
2023/06/04 00:39:57;;;;;;;4.40;2.80;;;;;;;10.09;52.33;101481.69;835072;23;1174;-77
2023/06/04 00:40:18;;;;;;;4.20;2.93;;;;;;;10.01;52.35;101463.13;837165;23;997;-77
2023/06/04 00:40:38;;;;;;;3.37;2.90;;;;;;;10.08;52.83;101490.34;841297;23;870;-77
2023/06/04 00:40:59;;;;;;;3.20;2.90;;;;;;;10.03;52.56;101476.22;840764;23;1202;-77
2023/06/04 00:41:20;;;;;;;3.60;2.88;;;;;;;10.03;52.46;101475.31;843385;23;1246;-77
2023/06/04 00:41:42;;;;;;;4.20;2.80;;;;;;;9.99;52.66;101474.31;839868;23;1275;-77
2023/06/04 00:42:03;;;;;;;4.50;2.75;;;;;;;10.01;52.62;101475.25;845012;23;1111;-77
2023/06/04 00:42:24;;;;;;;4.22;2.60;;;;;;;9.98;52.73;101475.13;843910;23;1166;-76
2023/06/04 00:42:45;;;;;;;3.70;2.70;;;;;;;9.98;53.16;101476.03;839626;23;1032;-77
2023/06/04 00:43:06;;;;;;;4.43;2.78;;;;;;;10.04;52.80;101484.94;838731;23;1216;-77
2023/06/04 00:43:27;;;;;;;4.50;2.90;;;;;;;10.00;53.04;101478.69;839856;23;1155;-77
2023/06/04 00:43:55;;;;;;;4.25;2.90;;;;;;;10.02;53.06;101482.28;841050;23;1083;-78
2023/06/04 00:44:17;;;;;;;3.00;2.70;;;;;;;10.00;53.14;101481.31;839865;23;1301;-77
2023/06/04 00:44:44;;;;;;;3.50;2.80;;;;;;;9.99;53.32;101475.22;839896;23;1314;-77
2023/06/04 00:45:09;;;;;;;4.03;2.92;;;;;;;9.99;52.96;101476.91;835016;23;987;-77
2023/06/04 00:45:30;;;;;;;3.50;3.00;;;;;;;10.00;53.41;101476.09;841225;23;815;-78
2023/06/04 00:45:52;;;;;;;4.10;3.20;;;;;;;10.08;53.38;101492.94;839603;23;1308;-78
2023/06/04 00:46:18;;;;;;;3.72;2.92;;;;;;;9.94;53.41;101475.84;835589;23;1168;-77
2023/06/04 00:46:39;;;;;;;3.97;2.97;;;;;;;10.05;53.46;101485.00;839792;23;1157;-78
2023/06/04 00:47:00;;;;;;;3.60;2.90;;;;;;;9.99;53.55;101474.31;844217;23;1065;-78
2023/06/04 00:47:21;;;;;;;3.72;2.97;;;;;;;10.02;53.19;101484.88;843618;23;1263;-78
2023/06/04 00:47:41;;;;;;;7.90;2.90;;;;;;;9.97;53.57;101475.97;839627;23;1298;-79
2023/06/04 00:48:02;;;;;;;8.50;2.70;;;;;;;10.03;53.76;101485.75;843439;23;1437;-78
2023/06/04 00:48:23;;;;;;;8.07;2.65;;;;;;;9.98;53.90;101472.53;841162;23;772;-76
2023/06/04 00:48:44;;;;;;;3.65;2.60;;;;;;;10.01;53.80;101478.78;837030;23;1092;-77
2023/06/04 00:49:05;;;;;;;3.33;2.70;;;;;;;10.04;54.09;101487.53;835542;23;1250;-76
2023/06/04 00:49:26;;;;;;;4.30;2.90;;;;;;;9.98;53.75;101472.53;837138;23;823;-76
2023/06/04 00:49:47;;;;;;;4.40;3.00;;;;;;;9.96;54.16;101474.19;839794;23;1166;-76
2023/06/04 00:50:09;;;;;;;4.35;2.90;;;;;;;10.00;53.85;101478.69;836976;23;1036;-77
2023/06/04 00:50:30;;;;;;;4.05;3.08;;;;;;;10.04;54.13;101482.31;841340;23;767;-77
2023/06/04 00:50:51;;;;;;;5.80;3.28;;;;;;;9.97;54.04;101478.56;836933;23;980;-76
2023/06/04 00:51:12;;;;;;;6.15;3.50;;;;;;;9.97;54.42;101470.75;839624;23;1064;-76
2023/06/04 00:51:33;;;;;;;6.15;3.42;;;;;;;9.96;54.27;101469.84;841295;23;787;-78
2023/06/04 00:51:54;;;;;;;5.43;3.67;;;;;;;9.96;54.18;101469.84;843572;23;1161;-78
2023/06/04 00:52:16;;;;;;;5.78;3.78;;;;;;;9.94;54.24;101468.03;845134;23;964;-78
2023/06/04 00:52:37;;;;;;;5.80;3.67;;;;;;;9.94;54.33;101473.25;842381;23;1838;-78
2023/06/04 00:52:58;;;;;;;4.30;3.35;;;;;;;9.97;54.21;101478.56;838991;23;1178;-77
2023/06/04 00:53:20;;;;;;;4.32;3.35;;;;;;;9.97;54.30;101476.84;839731;23;1403;-79
2023/06/04 00:53:41;;;;;;;4.20;3.50;;;;;;;9.96;54.40;101479.41;839621;23;1340;-79
2023/06/04 00:54:08;;;;;;;5.10;3.97;;;;;;;10.01;54.77;101488.28;840992;23;1088;-76
2023/06/04 00:54:29;;;;;;;5.65;4.20;;;;;;;9.97;54.43;101479.44;841163;23;1079;-77
2023/06/04 00:54:52;;;;;;;5.82;4.10;;;;;;;9.97;54.71;101470.75;840981;23;997;-75
2023/06/04 00:55:12;;;;;;;6.78;4.00;;;;;;;10.02;54.67;101490.09;841005;23;1182;-76
2023/06/04 00:55:33;;;;;;;6.60;3.88;;;;;;;9.97;54.66;101475.97;835355;23;1270;-76
2023/06/04 00:55:54;;;;;;;6.35;4.20;;;;;;;9.96;54.92;101474.19;839388;23;1261;-76
2023/06/04 00:56:15;;;;;;;5.88;4.40;;;;;;;9.95;54.85;101478.50;838699;23;1288;-76
2023/06/04 00:56:38;;;;;;;6.80;4.57;;;;;;;9.92;54.81;101467.06;841101;23;943;-76
2023/06/04 00:56:59;;;;;;;5.97;4.15;;;;;;;9.92;55.11;101472.28;842327;23;1187;-75
2023/06/04 00:57:22;;;;;;;4.78;3.85;;;;;;;9.93;55.08;101479.25;842853;23;1233;-76
2023/06/04 00:57:42;;;;;;;5.00;3.90;;;;;;;9.94;55.12;101470.63;840978;23;1047;-76
2023/06/04 00:58:06;;;;;;;5.47;4.05;;;;;;;9.87;55.29;101464.25;836959;23;1020;-76
2023/06/04 00:58:26;;;;;;;5.50;4.00;;;;;;;9.97;54.94;101481.19;839914;23;815;-76
2023/06/04 00:58:47;;;;;;;5.45;3.88;;;;;;;9.87;55.57;101472.06;840723;23;859;-76
2023/06/04 00:59:09;;;;;;;6.05;3.90;;;;;;;9.91;55.17;101478.31;835551;23;1191;-76
2023/06/04 00:59:32;;;;;;;5.70;3.90;;;;;;;9.89;55.40;101479.97;843840;23;1279;-77
2023/06/04 00:59:53;;;;;;;5.00;3.58;;;;;;;9.84;55.37;101477.19;849091;23;970;-77
2023/06/04 01:00:14;;;;;;;3.85;3.35;;;;;;;9.93;55.37;101489.69;845202;23;1043;-76
2023/06/04 01:00:36;;;;;;;3.60;3.20;;;;;;;9.82;55.29;101479.72;839434;23;1222;-76
2023/06/04 01:00:59;;;;;;;4.82;3.15;;;;;;;9.83;55.64;101483.22;835566;23;1204;-76
2023/06/04 01:01:32;;;;;;;5.10;3.30;;;;;;;9.82;55.43;101482.31;837041;23;1089;-77
2023/06/04 01:02:06;;;;;;;4.60;3.30;;;;;;;9.80;55.65;101477.84;839619;23;1059;-77
2023/06/04 01:02:29;;;;;;;4.10;3.10;;;;;;;9.77;55.67;101477.75;835836;23;1923;-78
2023/06/04 01:02:53;;;;;;;3.28;2.80;;;;;;;9.83;55.89;101491.03;837816;23;1229;-77
2023/06/04 01:03:18;;;;;;;3.58;2.90;;;;;;;9.78;55.89;101483.03;837010;23;1037;-77
2023/06/04 01:03:45;;;;;;;3.90;3.00;;;;;;;9.73;56.09;101477.59;841281;23;783;-77
2023/06/04 01:04:17;;;;;;;3.63;2.95;;;;;;;9.78;56.03;101484.72;840961;23;1012;-76
2023/06/04 01:04:46;;;;;;;4.40;2.90;;;;;;;9.71;56.15;101468.81;842359;23;1291;-77
2023/06/04 01:05:48;;;;;;;5.10;3.00;;;;;;;9.82;56.38;101490.13;840894;23;1079;-77
2023/06/04 01:06:25;;;;;;;4.38;2.80;;;;;;;9.79;56.57;101486.50;840670;23;1485;-77
2023/06/04 01:06:51;;;;;;;4.40;3.10;;;;;;;9.77;56.47;101489.03;834880;23;1174;-77
2023/06/04 01:07:14;;;;;;;4.80;3.15;;;;;;;9.78;56.30;101493.44;827573;23;1383;-77
2023/06/04 01:07:36;;;;;;;4.40;2.90;;;;;;;9.78;56.59;101496.06;829227;23;1897;-77
2023/06/04 01:07:57;;;;;;;4.22;2.90;;;;;;;9.74;56.44;101491.53;831297;23;1416;-77
2023/06/04 01:08:18;;;;;;;3.97;2.85;;;;;;;9.71;56.26;101486.19;841034;23;1095;-77
2023/06/04 01:08:42;;;;;;;4.22;2.72;;;;;;;9.65;56.54;101478.97;835756;23;948;-78
2023/06/04 01:09:04;;;;;;;4.30;2.72;;;;;;;9.73;56.64;101492.34;844607;23;994;-78
2023/06/04 01:09:28;;;;;;;4.22;2.90;;;;;;;9.67;56.44;101494.69;845343;23;926;-77
2023/06/04 01:09:49;;;;;;;4.03;3.10;;;;;;;9.64;56.93;101482.41;834745;23;1033;-77
2023/06/04 01:10:10;;;;;;;4.00;3.17;;;;;;;9.64;56.73;101482.41;840891;23;1128;-78
2023/06/04 01:10:30;;;;;;;3.90;3.10;;;;;;;9.67;56.58;101492.09;845412;23;771;-77
2023/06/04 01:10:55;;;;;;;3.40;3.10;;;;;;;9.68;56.72;101488.66;842237;23;1312;-77
2023/06/04 01:11:16;;;;;;;3.65;3.10;;;;;;;9.67;57.13;101493.00;845023;23;1079;-78
2023/06/04 01:11:38;;;;;;;4.57;3.30;;;;;;;9.63;57.41;101475.41;842802;23;1419;-77
2023/06/04 01:12:01;;;;;;;5.32;3.13;;;;;;;9.70;57.21;101494.81;844821;23;1058;-77
2023/06/04 01:12:23;;;;;;;6.10;2.85;;;;;;;9.59;57.23;101476.13;847416;23;1359;-79
2023/06/04 01:12:44;;;;;;;4.50;2.70;;;;;;;9.63;57.08;101482.38;845087;23;1000;-79
2023/06/04 01:13:05;;;;;;;4.57;2.80;;;;;;;9.69;57.41;101495.63;843021;23;1116;-77
2023/06/04 01:13:25;;;;;;;3.10;2.78;;;;;;;9.64;57.08;101481.53;845161;23;923;-77
2023/06/04 01:13:46;;;;;;;3.80;2.75;;;;;;;9.67;57.22;101497.28;845019;23;965;-77
2023/06/04 01:14:09;;;;;;;3.75;2.80;;;;;;;9.61;57.55;101482.28;840941;23;1096;-78
2023/06/04 01:14:33;;;;;;;3.88;2.78;;;;;;;9.58;57.28;101472.63;835268;23;1353;-77
2023/06/04 01:14:54;;;;;;;4.00;2.70;;;;;;;9.62;57.63;101483.16;835600;23;1334;-78
2023/06/04 01:15:15;;;;;;;6.13;3.00;;;;;;;9.65;57.28;101488.53;843648;23;1087;-78
2023/06/04 01:15:35;;;;;;;6.45;3.35;;;;;;;9.58;57.51;101483.03;843478;23;1089;-78
2023/06/04 01:15:56;;;;;;;6.10;3.70;;;;;;;9.51;57.64;101478.38;843734;23;1134;-77
2023/06/04 01:16:17;;;;;;;4.10;3.50;;;;;;;9.54;57.63;101486.34;835749;23;1036;-77
2023/06/04 01:17:02;;;;;;;3.67;2.97;;;;;;;9.49;57.49;101480.03;842545;23;1355;-78
2023/06/04 01:17:40;;;;;;;4.97;3.10;;;;;;;9.52;57.97;101482.75;847898;23;1197;-77
2023/06/04 01:18:03;;;;;;;7.57;3.60;;;;;;;9.45;57.64;101471.19;847582;23;1053;-78
2023/06/04 01:18:30;;;;;;;5.70;3.40;;;;;;;9.55;57.70;101490.75;839815;23;1434;-77
2023/06/04 01:18:51;;;;;;;4.38;3.20;;;;;;;9.52;57.70;101476.69;843268;23;1052;-78
2023/06/04 01:19:40;;;;;;;3.97;3.30;;;;;;;9.50;57.82;101484.41;840873;23;926;-78
2023/06/04 01:20:08;;;;;;;4.55;3.47;;;;;;;9.55;58.03;101490.75;839464;23;1188;-77
2023/06/04 01:20:40;;;;;;;4.68;3.30;;;;;;;9.47;58.22;101479.09;835863;23;1626;-78
2023/06/04 01:21:07;;;;;;;5.28;3.50;;;;;;;9.50;58.45;101479.22;838544;23;893;-78
2023/06/04 01:21:35;;;;;;;5.15;3.50;;;;;;;9.54;58.53;101496.78;837252;23;827;-78
2023/06/04 01:22:03;;;;;;;5.82;3.72;;;;;;;9.54;58.41;101495.88;842311;23;1066;-78
2023/06/04 01:22:37;;;;;;;5.80;3.80;;;;;;;9.55;58.56;101497.66;838713;23;1228;-77
2023/06/04 01:23:23;;;;;;;5.50;3.80;;;;;;;9.51;58.87;101496.63;838006;23;1134;-77
2023/06/04 01:23:58;;;;;;;4.65;3.80;;;;;;;9.45;58.55;101481.63;839469;23;1081;-78
2023/06/04 01:24:24;;;;;;;6.15;3.92;;;;;;;9.48;59.06;101488.69;843707;23;1174;-77
2023/06/04 01:24:52;;;;;;;5.95;3.90;;;;;;;9.40;58.68;101479.63;845129;23;1032;-78
2023/06/04 01:25:38;;;;;;;6.00;4.20;;;;;;;9.49;59.10;101497.38;845173;23;992;-78
2023/06/04 01:26:05;;;;;;;5.05;3.65;;;;;;;9.46;58.56;101492.91;840794;23;1137;-78
2023/06/04 01:26:38;;;;;;;5.63;3.72;;;;;;;9.46;59.12;101492.91;843963;23;1307;-77
2023/06/04 01:27:00;;;;;;;5.85;4.05;;;;;;;9.39;58.92;101477.88;842118;23;1186;-77
2023/06/04 01:27:22;;;;;;;5.32;4.10;;;;;;;9.44;59.23;101484.16;845263;23;1168;-77
2023/06/04 01:27:44;;;;;;;4.70;3.95;;;;;;;9.39;59.42;101475.25;839976;23;1555;-77
2023/06/04 01:28:07;;;;;;;5.50;4.10;;;;;;;9.41;58.79;101478.81;844999;23;1131;-77
2023/06/04 01:28:29;;;;;;;7.20;4.00;;;;;;;9.39;59.41;101475.25;849283;23;837;-78
2023/06/04 01:28:51;;;;;;;6.90;4.00;;;;;;;9.44;59.12;101489.34;843502;23;1324;-78
2023/06/04 01:29:12;;;;;;;5.60;3.72;;;;;;;9.40;58.87;101485.72;843416;23;1110;-78
2023/06/04 01:29:36;;;;;;;4.22;3.47;;;;;;;9.37;59.23;101483.00;849365;23;930;-77
2023/06/04 01:29:58;;;;;;;5.35;3.50;;;;;;;9.38;59.01;101478.66;844812;23;1142;-77
2023/06/04 01:30:28;;;;;;;6.13;3.60;;;;;;;9.39;59.11;101483.06;835493;23;1243;-77
2023/06/04 01:30:50;;;;;;;6.70;3.85;;;;;;;9.31;59.15;101468.00;840900;23;1048;-77
2023/06/04 01:31:12;;;;;;;6.00;3.70;;;;;;;9.40;59.27;101477.03;839570;23;1103;-77
2023/06/04 01:31:33;;;;;;;6.22;3.75;;;;;;;9.36;59.36;101477.69;841127;23;768;-77
2023/06/04 01:31:54;;;;;;;5.40;3.88;;;;;;;9.37;59.41;101476.88;838034;23;1012;-77
2023/06/04 01:32:17;;;;;;;4.95;3.83;;;;;;;9.35;59.17;101473.31;841161;23;1021;-76
2023/06/04 01:32:38;;;;;;;5.18;3.90;;;;;;;9.36;59.45;101480.31;842628;23;1519;-77
2023/06/04 01:32:59;;;;;;;5.18;4.00;;;;;;;9.43;59.32;101495.41;847597;23;1197;-77
2023/06/04 01:33:20;;;;;;;5.20;4.00;;;;;;;9.35;59.62;101478.53;849391;23;1111;-77
2023/06/04 01:33:41;;;;;;;5.20;3.70;;;;;;;9.32;59.56;101477.59;851898;23;1190;-78
2023/06/04 01:34:02;;;;;;;4.60;3.50;;;;;;;9.32;59.83;101474.97;849184;23;1000;-77
2023/06/04 01:34:22;;;;;;;4.80;3.47;;;;;;;9.40;59.78;101493.53;838904;23;999;-78
2023/06/04 01:34:46;;;;;;;5.10;3.60;;;;;;;9.37;59.76;101485.59;839570;23;1164;-77
2023/06/04 01:35:10;;;;;;;5.13;3.80;;;;;;;9.35;59.48;101483.75;835681;23;1162;-78
2023/06/04 01:35:31;;;;;;;5.35;3.70;;;;;;;9.33;59.98;101483.66;839823;23;1193;-77
2023/06/04 01:35:52;;;;;;;4.45;3.25;;;;;;;9.32;59.77;101485.41;841101;23;986;-77
2023/06/04 01:36:13;;;;;;;3.83;3.20;;;;;;;9.28;59.97;101473.03;839715;23;1195;-77
2023/06/04 01:36:34;;;;;;;3.97;3.27;;;;;;;9.29;59.59;101479.16;845195;23;898;-78
2023/06/04 01:36:55;;;;;;;6.38;3.47;;;;;;;9.31;60.14;101483.63;848394;23;1110;-77
2023/06/04 01:37:16;;;;;;;6.60;3.40;;;;;;;9.34;59.91;101492.38;846884;23;1155;-77
2023/06/04 01:37:37;;;;;;;6.30;3.30;;;;;;;9.34;59.93;101493.25;849324;23;815;-77
2023/06/04 01:37:58;;;;;;;4.10;3.10;;;;;;;9.24;59.61;101481.56;843500;23;1128;-77
2023/06/04 01:38:19;;;;;;;3.90;3.22;;;;;;;9.31;60.36;101494.03;841214;23;1172;-77
2023/06/04 01:38:40;;;;;;;4.30;3.40;;;;;;;9.30;60.21;101491.34;842838;23;1083;-79
2023/06/04 01:39:01;;;;;;;4.30;3.58;;;;;;;9.30;60.39;101492.25;844687;23;858;-78
2023/06/04 01:39:21;;;;;;;4.68;3.50;;;;;;;9.22;60.10;101483.19;845275;23;818;-78
2023/06/04 01:39:42;;;;;;;4.63;3.45;;;;;;;9.27;60.02;101497.31;839304;23;1239;-78
2023/06/04 01:40:04;;;;;;;6.32;3.40;;;;;;;9.26;60.22;101495.53;836878;23;948;-78
2023/06/04 01:40:26;;;;;;;6.95;3.38;;;;;;;9.30;60.19;101499.16;837225;23;875;-78
2023/06/04 01:40:47;;;;;;;6.53;3.45;;;;;;;9.26;60.56;101498.13;843529;23;1170;-78
2023/06/04 01:41:08;;;;;;;4.93;3.50;;;;;;;9.25;60.59;101498.97;842754;23;1290;-79
2023/06/04 01:41:29;;;;;;;3.97;3.57;;;;;;;9.22;60.69;101483.19;845336;23;794;-78
2023/06/04 01:41:49;;;;;;;3.90;3.37;;;;;;;9.27;60.42;101501.66;843218;23;1264;-78
2023/06/04 01:42:10;;;;;;;4.03;3.27;;;;;;;9.24;60.18;101496.28;849193;23;1019;-78
2023/06/04 01:42:31;;;;;;;4.35;3.28;;;;;;;9.20;60.42;101490.03;842951;23;1116;-78
2023/06/04 01:42:52;;;;;;;4.28;3.10;;;;;;;9.26;60.61;101494.63;845192;23;1106;-78
2023/06/04 01:43:13;;;;;;;4.03;2.97;;;;;;;9.19;60.53;101493.47;845012;23;1091;-78
2023/06/04 01:43:35;;;;;;;3.85;2.95;;;;;;;9.22;60.74;101498.81;839829;23;1251;-78
2023/06/04 01:43:55;;;;;;;3.55;2.95;;;;;;;9.16;60.50;101485.53;840934;23;961;-77
2023/06/04 01:44:17;;;;;;;3.65;3.20;;;;;;;9.16;60.38;101489.00;847844;23;1204;-78
2023/06/04 01:44:37;;;;;;;3.70;3.30;;;;;;;9.12;60.68;101486.19;847054;23;1339;-78
2023/06/04 01:44:59;;;;;;;4.30;3.38;;;;;;;9.11;60.55;101487.94;849043;23;1056;-78
2023/06/04 01:45:23;;;;;;;3.80;3.03;;;;;;;9.15;60.49;101494.16;847220;23;1227;-78
2023/06/04 01:45:44;;;;;;;3.50;3.03;;;;;;;9.17;60.74;101501.19;843592;23;1632;-79
2023/06/04 01:46:05;;;;;;;4.10;3.05;;;;;;;9.14;60.86;101495.88;844936;23;1039;-78
2023/06/04 01:46:26;;;;;;;4.30;3.10;;;;;;;9.14;60.51;101484.53;845216;23;843;-79
2023/06/04 01:46:47;;;;;;;4.20;3.00;;;;;;;9.13;60.71;101488.88;840201;23;1028;-79
2023/06/04 01:47:07;;;;;;;3.50;3.00;;;;;;;9.07;60.79;101483.38;839087;23;1255;-79
2023/06/04 01:47:29;;;;;;;3.50;3.00;;;;;;;9.14;60.64;101494.97;835711;23;1915;-78
2023/06/04 01:47:51;;;;;;;3.53;3.05;;;;;;;9.07;60.64;101477.31;834768;23;1216;-78
2023/06/04 01:48:15;;;;;;;3.22;2.92;;;;;;;9.04;60.99;101478.06;839568;23;935;-78
2023/06/04 01:48:36;;;;;;;3.40;2.88;;;;;;;9.05;61.05;101480.69;839352;23;1126;-79